Flag for Austria

Past Weather in Götzis, Vorarlberg, Austria — Yesterday and Last 2 Weeks

Currently: 37 °F. Clear. (Weather station: Saint Gallen-Altenrhein, Austria). See more current weather

Past Weather in Götzis — Graph

°F

Götzis Temperature Yesterday

Maximum temperature yesterday: 52 °F (at 8:20 pm)
Minimum temperature yesterday: 23 °F (at 3:20 am)
Average temperature yesterday: 35 °F

High & Low Weather Summary for the Past Weeks

 TemperatureHumidityPressure
High52 °F (Jan 20, 8:20 pm)100% (Jan 6, 5:20 am)30.33 "Hg (Jan 6, 5:20 am)
Low18 °F (Jan 15, 10:20 pm)32% (Jan 20, 8:20 pm)29.62 "Hg (Jan 20, 8:20 pm)
Average31 °F90%30.07 "Hg
* Reported Jan 6 5:20 am — Jan 21 5:50 am, Götzis. Weather by CustomWeather, © 2021

Note: Actual official high and low records may vary slightly from our data, if they occured in-between our weather recording intervals... More about our weather records

Götzis Weather History for the Previous 24 Hours

Scroll right to see more
 ConditionsComfort  
Time TempWeatherWind HumidityBarometerVisibility
5:50 am
Thu, Jan 21
37 °FPassing clouds.16 mph93%29.62 "HgN/A
5:20 am50 °FPartly cloudy.10 mph47%29.62 "HgN/A
4:50 am41 °FPassing clouds.9 mph76%29.62 "HgN/A
4:20 am37 °FClear.9 mph87%29.65 "Hg10 mi
3:50 am37 °FClear.10 mph87%29.62 "Hg10 mi
3:20 am37 °FClear.13 mph87%29.65 "Hg10 mi
2:50 am37 °FPassing clouds.13 mph87%29.65 "HgN/A
2:20 am37 °FPassing clouds.9 mph87%29.62 "HgN/A
1:50 am36 °FClear.14 mph93%29.65 "Hg10 mi
1:20 am37 °FClear.16 mph87%29.65 "Hg10 mi
12:50 am39 °FPassing clouds.18 mph87%29.62 "HgN/A
12:20 am37 °FPassing clouds.15 mph87%29.65 "HgN/A
11:50 pm
Wed, Jan 20
37 °FPassing clouds.16 mph93%29.65 "HgN/A
11:20 pm50 °FClear.9 mph43%29.65 "Hg10 mi
10:50 pm39 °FPassing clouds.15 mph87%29.65 "HgN/A
10:20 pm39 °FPassing clouds.21 mph87%29.65 "HgN/A
9:50 pm46 °FClear.17 mph43%29.65 "HgN/A
9:20 pm52 °FClear.17 mph32%29.65 "Hg10 mi
8:50 pm52 °FPassing clouds.22 mph32%29.62 "HgN/A
8:20 pm52 °FClear.23 mph32%29.62 "Hg10 mi
7:50 pm41 °FPassing clouds.10 mph76%29.68 "HgN/A
7:20 pm41 °FPassing clouds.10 mph76%29.68 "HgN/A
6:50 pm39 °FPassing clouds.12 mph81%29.71 "HgN/A
6:20 pm39 °FPassing clouds.12 mph81%29.71 "HgN/A
5:50 pm39 °FClear.7 mph81%29.74 "Hg10 mi
5:20 pm39 °FClear.7 mph81%29.74 "Hg10 mi
4:50 pm39 °FSunny.9 mph81%29.74 "Hg10 mi
4:20 pm39 °FSunny.9 mph81%29.74 "Hg10 mi
3:50 pm39 °FPassing clouds.10 mph81%29.74 "HgN/A
3:20 pm39 °FPassing clouds.10 mph81%29.74 "HgN/A
2:20 pm39 °FSunny.12 mph81%29.77 "Hg10 mi
1:50 pm37 °FPassing clouds.7 mph93%29.80 "HgN/A
1:20 pm37 °FSunny.5 mph93%29.80 "Hg10 mi
12:50 pm37 °FSunny.3 mph93%29.83 "Hg10 mi
12:20 pm36 °FSunny.3 mph100%29.83 "Hg10 mi
11:50 am36 °FSunny.2 mph100%29.86 "Hg10 mi
11:20 am36 °FSunny.2 mph93%29.86 "Hg10 mi
10:50 am36 °FSunny.3 mph93%29.89 "Hg10 mi
10:20 am32 °FSunny.3 mph100%29.89 "Hg10 mi
9:50 am30 °FSunny.2 mph100%29.89 "Hg10 mi
9:20 am30 °FSunny.6 mph100%29.89 "Hg10 mi
8:50 am30 °FSunny.5 mph100%29.92 "Hg10 mi
8:20 am27 °FSunny.3 mph100%29.92 "Hg10 mi
7:50 am25 °FClear.2 mph100%29.89 "Hg10 mi
7:20 am27 °FClear.1 mph100%29.92 "Hg10 mi
Weather by CustomWeather, © 2021

See weather overview